Time;durP1;ratioP1;P1;durP2;ratioP2;P2;SDS_P1;SDS_P2;PMS_P1;PMS_P2;Temp;Humidity;BMP_temperature;BMP_pressure;BME280_temperature;BME280_humidity;BME280_pressure;Samples;Min_cycle;Max_cycle;Signal;HPM_P1;HPM_P2
2023/05/01 00:02:01;;;;;;;4.43;4.03;;;13.00;99.90;;;;;;5072439;28;20387;-84
2023/05/01 00:04:26;;;;;;;3.87;3.57;;;12.90;99.90;;;;;;5073450;28;20761;-84
2023/05/01 00:06:52;;;;;;;4.60;4.20;;;13.00;99.90;;;;;;5072225;28;20874;-84
2023/05/01 00:09:18;;;;;;;3.90;3.60;;;12.90;99.90;;;;;;5072985;28;20383;-85
2023/05/01 00:11:45;;;;;;;4.60;4.20;;;13.00;99.90;;;;;;5072131;28;20796;-84
2023/05/01 00:14:10;;;;;;;4.82;4.32;;;13.00;99.90;;;;;;5053547;28;20397;-84
2023/05/01 00:16:36;;;;;;;4.50;4.20;;;12.90;99.90;;;;;;5039662;28;20393;-84
2023/05/01 00:19:03;;;;;;;4.85;4.20;;;12.90;99.90;;;;;;5037705;28;20960;-85
2023/05/01 00:21:29;;;;;;;5.07;4.07;;;12.90;99.90;;;;;;5058001;28;20454;-84
2023/05/01 00:23:55;;;;;;;4.45;3.83;;;12.90;99.90;;;;;;5035612;28;20775;-84
2023/05/01 00:26:20;;;;;;;4.20;3.90;;;12.90;99.90;;;;;;5035168;28;20397;-83
2023/05/01 00:28:46;;;;;;;3.93;3.63;;;12.90;99.90;;;;;;5034683;28;20389;-84
2023/05/01 00:31:11;;;;;;;4.13;3.83;;;12.90;99.90;;;;;;5039752;28;20400;-84
2023/05/01 00:33:37;;;;;;;4.15;3.85;;;12.90;99.90;;;;;;5046958;28;20461;-84
2023/05/01 00:36:03;;;;;;;4.10;3.80;;;13.00;99.90;;;;;;5057473;28;20452;-84
2023/05/01 00:38:28;;;;;;;4.60;4.30;;;12.90;99.90;;;;;;5058451;28;20392;-85
2023/05/01 00:40:54;;;;;;;4.05;3.75;;;12.90;99.90;;;;;;5075134;28;20377;-84
2023/05/01 00:43:19;;;;;;;4.60;3.97;;;12.90;99.90;;;;;;5059092;28;20400;-84
2023/05/01 00:45:45;;;;;;;4.60;4.20;;;12.80;99.90;;;;;;5057500;28;20896;-85
2023/05/01 00:48:11;;;;;;;4.13;3.80;;;12.80;99.90;;;;;;5057515;28;20539;-84
2023/05/01 00:50:37;;;;;;;4.60;4.20;;;12.70;99.90;;;;;;5034845;28;20421;-84
2023/05/01 00:53:03;;;;;;;4.47;4.07;;;12.80;99.90;;;;;;5036025;28;20476;-85
2023/05/01 00:55:31;;;;;;;4.37;3.97;;;12.80;99.90;;;;;;5052469;28;20497;-85
2023/05/01 00:57:59;;;;;;;4.40;4.00;;;12.70;99.90;;;;;;5064316;28;20387;-84
2023/05/01 01:00:24;;;;;;;4.40;4.00;;;12.70;99.90;;;;;;5069620;28;20384;-84
2023/05/01 01:02:50;;;;;;;4.50;4.10;;;12.70;99.90;;;;;;5079872;28;20395;-85
2023/05/01 01:05:17;;;;;;;4.18;3.88;;;12.70;99.90;;;;;;5055756;28;20991;-84
2023/05/01 01:08:15;;;;;;;4.20;3.80;;;12.60;99.90;;;;;;5073463;28;20379;-84
2023/05/01 01:10:55;;;;;;;4.60;4.20;;;12.70;99.90;;;;;;5046235;28;20459;-84
2023/05/01 01:13:46;;;;;;;4.55;4.15;;;12.70;99.90;;;;;;5035515;28;20419;-84
2023/05/01 01:16:24;;;;;;;5.03;4.53;;;12.70;99.90;;;;;;5052430;28;20421;-84
2023/05/01 01:18:56;;;;;;;4.75;4.25;;;12.60;99.90;;;;;;5056184;28;20823;-84
2023/05/01 01:21:33;;;;;;;4.38;3.97;;;12.70;99.90;;;;;;5071571;28;20461;-83
2023/05/01 01:24:24;;;;;;;4.60;4.20;;;12.70;99.90;;;;;;5058173;28;20465;-87
2023/05/01 01:27:05;;;;;;;4.13;3.75;;;12.60;99.90;;;;;;5058693;28;20395;-86
2023/05/01 01:29:42;;;;;;;4.10;3.70;;;12.60;99.90;;;;;;5065060;28;20392;-86
2023/05/01 01:32:38;;;;;;;4.00;3.70;;;12.50;99.90;;;;;;5056314;28;20433;-83
2023/05/01 01:35:09;;;;;;;4.23;3.87;;;12.60;99.90;;;;;;5037924;28;20430;-84
2023/05/01 01:37:59;;;;;;;5.13;3.93;;;12.60;99.90;;;;;;5055728;28;20378;-84
2023/05/01 01:40:38;;;;;;;4.82;4.25;;;12.50;99.90;;;;;;5049904;28;20396;-84
2023/05/01 01:43:12;;;;;;;4.60;4.20;;;12.50;99.90;;;;;;5058092;28;20882;-84
2023/05/01 01:45:45;;;;;;;4.47;4.07;;;12.40;99.90;;;;;;5057186;28;20415;-85
2023/05/01 01:48:16;;;;;;;5.07;3.97;;;12.50;99.90;;;;;;5058669;28;20462;-84
2023/05/01 01:50:44;;;;;;;4.65;4.25;;;12.40;99.90;;;;;;5044262;28;20405;-85
2023/05/01 01:53:13;;;;;;;4.40;4.00;;;12.40;99.90;;;;;;5064946;28;20482;-84
2023/05/01 01:55:42;;;;;;;4.30;3.90;;;12.40;99.90;;;;;;5057497;28;20391;-84
2023/05/01 01:58:09;;;;;;;4.10;3.80;;;12.50;99.90;;;;;;5048868;28;20385;-84
2023/05/01 02:00:36;;;;;;;4.43;4.13;;;12.40;99.90;;;;;;5039728;28;20390;-84
2023/05/01 02:03:02;;;;;;;5.00;4.50;;;12.40;99.90;;;;;;5061768;28;20707;-84
2023/05/01 02:05:31;;;;;;;6.43;4.53;;;12.40;99.90;;;;;;5074795;28;20965;-86
2023/05/01 02:07:58;;;;;;;4.88;4.40;;;12.30;99.90;;;;;;5075251;28;20395;-85
2023/05/01 02:10:26;;;;;;;4.73;3.60;;;12.30;99.90;;;;;;5040632;28;20380;-84
2023/05/01 02:12:55;;;;;;;4.40;4.00;;;12.30;99.90;;;;;;5073014;28;20777;-84
2023/05/01 02:15:22;;;;;;;4.65;4.25;;;12.30;99.90;;;;;;5057269;28;20386;-86
2023/05/01 02:17:50;;;;;;;4.40;4.10;;;12.30;99.90;;;;;;5074581;28;20402;-85
2023/05/01 02:20:16;;;;;;;4.40;4.00;;;12.30;99.90;;;;;;5056898;28;20473;-84
2023/05/01 02:22:45;;;;;;;4.40;4.00;;;12.30;99.90;;;;;;5056522;28;20457;-85
2023/05/01 02:25:12;;;;;;;4.70;4.30;;;12.30;99.90;;;;;;5056159;28;20396;-85
2023/05/01 02:27:43;;;;;;;4.60;4.20;;;12.30;99.90;;;;;;5052687;28;20390;-84
2023/05/01 02:30:10;;;;;;;4.70;4.30;;;12.30;99.90;;;;;;5052449;28;20389;-84
2023/05/01 02:32:35;;;;;;;4.60;4.10;;;12.30;99.90;;;;;;5053661;28;20400;-84
2023/05/01 02:35:01;;;;;;;4.80;4.30;;;12.20;99.90;;;;;;5059170;28;20396;-83
2023/05/01 02:37:27;;;;;;;4.47;4.07;;;12.20;99.90;;;;;;5097360;28;20403;-84
2023/05/01 02:39:53;;;;;;;4.78;4.38;;;12.20;99.90;;;;;;5080201;28;20395;-85
2023/05/01 02:42:23;;;;;;;4.75;4.35;;;12.30;99.90;;;;;;5079281;28;20459;-84
2023/05/01 02:44:56;;;;;;;4.90;4.50;;;12.20;99.90;;;;;;5052535;28;20377;-84
2023/05/01 02:47:22;;;;;;;4.43;4.13;;;12.20;99.90;;;;;;5073249;28;20441;-86
2023/05/01 02:49:50;;;;;;;4.60;4.27;;;12.20;99.90;;;;;;5038270;28;20401;-85
2023/05/01 02:52:18;;;;;;;4.70;4.30;;;12.20;99.90;;;;;;5043780;28;20444;-85
2023/05/01 02:54:44;;;;;;;4.60;4.20;;;12.20;99.90;;;;;;5075282;28;20410;-86
2023/05/01 02:57:11;;;;;;;4.40;4.10;;;12.20;99.90;;;;;;5072912;28;20399;-85
2023/05/01 02:59:36;;;;;;;4.55;4.15;;;12.30;99.90;;;;;;5054299;28;20933;-84
2023/05/01 03:02:02;;;;;;;4.90;4.40;;;12.20;99.90;;;;;;5039471;28;20400;-84
2023/05/01 03:04:28;;;;;;;4.70;4.25;;;12.20;99.90;;;;;;5073305;28;20392;-83
2023/05/01 03:06:53;;;;;;;4.70;4.30;;;12.30;99.90;;;;;;5072816;28;20797;-84
2023/05/01 03:09:20;;;;;;;4.60;4.20;;;12.20;99.90;;;;;;5053000;28;20399;-84
2023/05/01 03:11:45;;;;;;;4.20;3.90;;;12.20;99.90;;;;;;5053010;28;20425;-84
2023/05/01 03:14:11;;;;;;;4.50;4.10;;;12.20;99.90;;;;;;5035240;28;20436;-83
2023/05/01 03:16:37;;;;;;;5.00;4.60;;;12.10;99.90;;;;;;5053321;28;20871;-84
2023/05/01 03:19:02;;;;;;;4.30;3.90;;;12.20;99.90;;;;;;5059056;28;20395;-84
2023/05/01 03:21:28;;;;;;;5.25;4.75;;;12.20;99.90;;;;;;5044594;28;20397;-84
2023/05/01 03:23:53;;;;;;;4.80;4.40;;;12.20;99.90;;;;;;5036641;28;20439;-84
2023/05/01 03:26:19;;;;;;;5.40;4.90;;;12.30;99.90;;;;;;5039386;28;20393;-84
2023/05/01 03:28:45;;;;;;;4.70;4.30;;;12.30;99.90;;;;;;5068291;28;20389;-84
2023/05/01 03:31:11;;;;;;;4.77;4.47;;;12.20;99.90;;;;;;5059316;28;20501;-83
2023/05/01 03:33:36;;;;;;;5.10;4.60;;;12.20;99.90;;;;;;5069946;28;20916;-84
2023/05/01 03:36:04;;;;;;;5.00;4.50;;;12.10;99.90;;;;;;5037937;28;20397;-85
2023/05/01 03:38:30;;;;;;;5.43;5.03;;;12.10;99.90;;;;;;5037889;28;20382;-85
2023/05/01 03:40:56;;;;;;;4.78;4.30;;;12.10;99.90;;;;;;5055601;28;20492;-84
2023/05/01 03:43:22;;;;;;;5.68;5.28;;;12.00;99.90;;;;;;5059689;28;20426;-84
2023/05/01 03:45:48;;;;;;;6.43;5.28;;;12.00;99.90;;;;;;5074118;28;20384;-84
2023/05/01 03:48:14;;;;;;;4.72;4.32;;;11.90;99.90;;;;;;5056844;28;20392;-84
2023/05/01 03:50:39;;;;;;;5.43;4.93;;;11.90;99.90;;;;;;5047170;28;20416;-84
2023/05/01 03:53:05;;;;;;;5.23;4.83;;;11.80;99.90;;;;;;5036144;28;20495;-84
2023/05/01 03:55:30;;;;;;;5.90;5.40;;;11.80;99.90;;;;;;5053775;28;20860;-84
2023/05/01 03:57:56;;;;;;;5.80;5.30;;;11.80;99.90;;;;;;5060845;28;20384;-84
2023/05/01 04:00:21;;;;;;;5.20;4.70;;;11.70;99.90;;;;;;5072979;28;20869;-84
2023/05/01 04:02:47;;;;;;;5.60;5.10;;;11.70;99.90;;;;;;5074084;28;20379;-84
2023/05/01 04:05:13;;;;;;;5.33;4.93;;;11.70;99.90;;;;;;5049260;28;20393;-84
2023/05/01 04:07:39;;;;;;;5.68;5.18;;;11.70;99.90;;;;;;5053507;28;20420;-83
2023/05/01 04:10:08;;;;;;;5.50;5.00;;;11.70;99.90;;;;;;5053189;28;20393;-84
2023/05/01 04:12:33;;;;;;;5.20;4.80;;;11.70;99.90;;;;;;5053085;28;20462;-84
2023/05/01 04:14:59;;;;;;;5.78;5.28;;;11.70;99.90;;;;;;5037888;28;20395;-84
2023/05/01 04:17:24;;;;;;;7.10;5.80;;;11.80;99.90;;;;;;5060017;28;20386;-84
2023/05/01 04:19:50;;;;;;;4.80;4.40;;;11.80;99.90;;;;;;5034493;28;20404;-84
2023/05/01 04:22:15;;;;;;;5.35;4.95;;;11.80;99.90;;;;;;5066472;28;20395;-83
2023/05/01 04:24:41;;;;;;;5.20;4.70;;;11.80;99.90;;;;;;5054255;28;20445;-84
2023/05/01 04:27:06;;;;;;;5.33;4.83;;;11.80;99.90;;;;;;5072419;28;20931;-83
2023/05/01 04:29:32;;;;;;;5.90;5.30;;;11.80;99.90;;;;;;5072668;28;20414;-84
2023/05/01 04:31:57;;;;;;;5.25;4.85;;;11.70;99.90;;;;;;5074424;28;20455;-84
2023/05/01 04:34:23;;;;;;;5.20;4.80;;;11.70;99.90;;;;;;5056112;28;20478;-84
2023/05/01 04:36:50;;;;;;;5.40;4.90;;;11.70;99.90;;;;;;5065680;28;20389;-85
2023/05/01 04:39:16;;;;;;;5.00;4.60;;;11.70;99.90;;;;;;5079251;28;20399;-84
2023/05/01 04:41:41;;;;;;;5.60;5.20;;;11.70;99.90;;;;;;5066648;28;20397;-85
2023/05/01 04:44:07;;;;;;;5.28;4.88;;;11.80;99.90;;;;;;5040588;28;20420;-83
2023/05/01 04:46:32;;;;;;;5.90;5.20;;;11.80;99.90;;;;;;5032873;28;20386;-83
2023/05/01 04:48:58;;;;;;;6.07;5.47;;;11.80;99.90;;;;;;5041955;28;20380;-84
2023/05/01 04:51:23;;;;;;;6.00;5.50;;;11.80;99.90;;;;;;5052522;28;20408;-83
2023/05/01 04:53:49;;;;;;;6.50;5.90;;;11.90;99.90;;;;;;5074642;28;20388;-84
2023/05/01 04:56:14;;;;;;;5.90;5.40;;;11.90;99.90;;;;;;5061008;28;20376;-85
2023/05/01 04:58:41;;;;;;;5.70;5.30;;;11.90;99.90;;;;;;5049877;28;20920;-84
2023/05/01 05:01:06;;;;;;;7.10;6.40;;;11.80;99.90;;;;;;5077049;28;20841;-85
2023/05/01 05:03:32;;;;;;;6.43;5.77;;;11.90;99.90;;;;;;5046259;28;20381;-84
2023/05/01 05:05:57;;;;;;;5.57;5.07;;;12.00;99.90;;;;;;5041290;28;20898;-84
2023/05/01 05:08:23;;;;;;;5.00;4.60;;;12.00;99.90;;;;;;5041765;28;20393;-84
2023/05/01 05:10:48;;;;;;;5.20;4.80;;;11.90;99.90;;;;;;5041887;28;20519;-85
2023/05/01 05:13:14;;;;;;;6.07;5.18;;;12.00;99.90;;;;;;5052053;28;20798;-84
2023/05/01 05:15:39;;;;;;;5.20;4.70;;;12.00;99.90;;;;;;5059223;28;20387;-85
2023/05/01 05:18:05;;;;;;;5.40;4.90;;;12.00;99.90;;;;;;5059177;28;20391;-85
2023/05/01 05:20:30;;;;;;;5.28;4.78;;;12.10;99.90;;;;;;5044200;28;20401;-84
2023/05/01 05:22:56;;;;;;;5.10;4.70;;;12.10;99.90;;;;;;5057235;28;20408;-85
2023/05/01 05:25:21;;;;;;;4.90;4.50;;;12.10;99.90;;;;;;5057037;28;20382;-84
2023/05/01 05:27:47;;;;;;;5.00;4.50;;;12.20;99.90;;;;;;5042887;28;20410;-84
2023/05/01 05:30:12;;;;;;;5.50;5.00;;;12.10;99.90;;;;;;5059288;28;20388;-85
2023/05/01 05:32:38;;;;;;;5.10;4.70;;;12.20;99.90;;;;;;5076326;28;20396;-84
2023/05/01 05:35:04;;;;;;;5.45;4.95;;;12.00;99.90;;;;;;5076510;28;20384;-85
2023/05/01 05:37:29;;;;;;;5.50;5.10;;;12.10;99.90;;;;;;5074848;28;20429;-84
2023/05/01 05:39:55;;;;;;;6.55;4.80;;;12.10;99.90;;;;;;5069934;28;20388;-84
2023/05/01 05:42:21;;;;;;;5.00;4.60;;;12.20;99.90;;;;;;5058256;28;20402;-84
2023/05/01 05:44:46;;;;;;;4.60;4.30;;;12.20;99.90;;;;;;5058302;28;20932;-85
2023/05/01 05:47:12;;;;;;;5.30;4.90;;;12.30;99.90;;;;;;5058212;28;20383;-84
2023/05/01 05:49:37;;;;;;;5.10;4.70;;;12.30;99.90;;;;;;5047166;28;20476;-84
2023/05/01 05:52:03;;;;;;;5.27;4.77;;;12.20;99.90;;;;;;5056122;28;20409;-84
2023/05/01 05:54:29;;;;;;;5.40;5.00;;;12.20;99.90;;;;;;5055680;28;20417;-84
2023/05/01 05:56:54;;;;;;;5.53;5.03;;;12.20;99.90;;;;;;5037701;28;20389;-84
2023/05/01 05:59:20;;;;;;;5.43;5.03;;;12.20;99.90;;;;;;5074928;28;20474;-84
2023/05/01 06:01:46;;;;;;;5.78;5.28;;;12.10;99.90;;;;;;5075813;28;20398;-84
2023/05/01 06:04:13;;;;;;;5.60;5.20;;;12.30;99.90;;;;;;5056183;28;20413;-84
2023/05/01 06:06:39;;;;;;;6.47;5.88;;;12.20;99.90;;;;;;5074272;28;20388;-84
2023/05/01 06:09:06;;;;;;;6.63;5.60;;;12.20;99.90;;;;;;5058292;28;20393;-84
2023/05/01 06:11:32;;;;;;;6.15;5.65;;;12.20;99.90;;;;;;5053933;28;20401;-84
2023/05/01 06:13:57;;;;;;;6.10;5.60;;;12.10;99.90;;;;;;5051381;28;20422;-84
2023/05/01 06:16:24;;;;;;;7.20;6.00;;;11.90;99.90;;;;;;5085803;28;20429;-85
2023/05/01 06:18:50;;;;;;;6.47;5.88;;;11.90;99.90;;;;;;5057778;28;20769;-84
2023/05/01 06:21:15;;;;;;;7.20;6.50;;;11.80;99.90;;;;;;5057232;28;20384;-83
2023/05/01 06:23:41;;;;;;;6.60;6.10;;;11.80;99.90;;;;;;5070697;28;20393;-83
2023/05/01 06:26:06;;;;;;;6.90;6.30;;;11.80;99.90;;;;;;5036052;28;20381;-83
2023/05/01 06:28:32;;;;;;;8.27;6.63;;;11.70;99.90;;;;;;5054371;28;20463;-83
2023/05/01 06:30:57;;;;;;;7.05;6.20;;;11.70;99.90;;;;;;5069002;28;20408;-83
2023/05/01 06:33:23;;;;;;;6.87;6.37;;;11.70;99.90;;;;;;5074182;28;20399;-83
2023/05/01 06:35:48;;;;;;;6.80;6.30;;;11.80;99.90;;;;;;5073652;28;20862;-83
2023/05/01 06:38:14;;;;;;;7.00;6.40;;;11.70;99.90;;;;;;5081285;28;20407;-83
2023/05/01 06:40:40;;;;;;;7.60;7.00;;;11.70;99.90;;;;;;5089259;28;20400;-83
2023/05/01 06:43:06;;;;;;;7.75;7.05;;;11.80;99.90;;;;;;5090381;28;20514;-83
2023/05/01 06:45:31;;;;;;;7.40;6.70;;;11.90;99.90;;;;;;5075478;28;20392;-83
2023/05/01 06:47:57;;;;;;;7.30;6.70;;;12.00;99.90;;;;;;5050114;28;20853;-82
2023/05/01 06:50:22;;;;;;;6.80;6.30;;;12.10;99.90;;;;;;5064339;28;20436;-82
2023/05/01 06:52:48;;;;;;;8.50;6.87;;;12.10;99.90;;;;;;5067206;28;20410;-82
2023/05/01 06:55:14;;;;;;;8.00;7.30;;;12.10;99.90;;;;;;5052408;28;20475;-83
2023/05/01 06:57:40;;;;;;;7.40;6.80;;;12.20;99.90;;;;;;5065880;28;20428;-83
2023/05/01 07:00:06;;;;;;;7.88;7.07;;;12.30;99.90;;;;;;5067998;28;20379;-82
2023/05/01 07:02:31;;;;;;;7.55;6.80;;;12.30;99.90;;;;;;5048592;28;20400;-83
2023/05/01 07:04:58;;;;;;;8.20;7.40;;;12.30;99.90;;;;;;5065019;28;20388;-83
2023/05/01 07:07:24;;;;;;;6.53;6.03;;;12.20;99.90;;;;;;5043009;28;20889;-82
2023/05/01 07:09:49;;;;;;;7.50;6.80;;;12.30;99.90;;;;;;5044411;28;20397;-82
2023/05/01 07:12:15;;;;;;;8.35;6.60;;;12.30;99.90;;;;;;5070339;28;20769;-83
2023/05/01 07:14:40;;;;;;;8.98;8.10;;;12.30;99.90;;;;;;5060059;28;20390;-83
2023/05/01 07:17:08;;;;;;;8.60;7.80;;;12.20;99.90;;;;;;5053597;28;20392;-82
2023/05/01 07:19:34;;;;;;;9.97;9.17;;;12.20;99.90;;;;;;5054004;28;20951;-82
2023/05/01 07:21:59;;;;;;;10.43;9.55;;;12.30;99.90;;;;;;5036425;28;20908;-82
2023/05/01 07:24:25;;;;;;;10.82;9.93;;;12.20;99.90;;;;;;5059649;28;20381;-81
2023/05/01 07:26:51;;;;;;;9.80;9.00;;;12.20;99.90;;;;;;5069336;28;20462;-81
2023/05/01 07:29:16;;;;;;;7.90;7.30;;;12.20;99.90;;;;;;5086555;28;20441;-81
2023/05/01 07:31:42;;;;;;;7.63;6.82;;;12.10;99.90;;;;;;5080494;28;20881;-82
2023/05/01 07:34:08;;;;;;;8.85;8.05;;;12.00;99.90;;;;;;5074617;28;20462;-82
2023/05/01 07:36:33;;;;;;;8.35;7.55;;;12.00;99.90;;;;;;5063536;28;20761;-83
2023/05/01 07:38:59;;;;;;;8.30;7.60;;;12.10;99.90;;;;;;5080197;28;20392;-83
2023/05/01 07:41:25;;;;;;;7.70;7.00;;;12.10;99.90;;;;;;5063523;28;20383;-82
2023/05/01 07:43:51;;;;;;;8.07;7.47;;;12.10;99.90;;;;;;5073630;28;20400;-82
2023/05/01 07:46:16;;;;;;;8.27;7.57;;;12.20;99.90;;;;;;5090656;28;20391;-83
2023/05/01 07:48:42;;;;;;;8.03;7.33;;;12.20;99.90;;;;;;5059311;28;20542;-83
2023/05/01 07:51:07;;;;;;;10.05;8.30;;;12.20;99.90;;;;;;5048907;28;20406;-83
2023/05/01 07:53:33;;;;;;;8.50;7.70;;;12.30;99.90;;;;;;5049850;28;20390;-83
2023/05/01 07:56:08;;;;;;;8.53;7.80;;;12.20;99.90;;;;;;5062975;28;20392;-83
2023/05/01 07:58:35;;;;;;;7.75;7.15;;;12.20;99.90;;;;;;5062491;28;20441;-83
2023/05/01 08:01:02;;;;;;;8.55;7.85;;;12.30;99.90;;;;;;5069555;28;20472;-83
2023/05/01 08:03:28;;;;;;;10.07;7.88;;;12.30;99.90;;;;;;5054584;28;20443;-83
2023/05/01 08:05:54;;;;;;;8.20;7.40;;;12.20;99.90;;;;;;5046206;28;20990;-84
2023/05/01 08:08:20;;;;;;;8.23;7.43;;;12.20;99.90;;;;;;5059494;28;20880;-84
2023/05/01 08:10:46;;;;;;;7.87;7.17;;;12.20;99.90;;;;;;5038764;28;20395;-83
2023/05/01 08:13:12;;;;;;;7.57;6.80;;;12.40;99.90;;;;;;5056717;28;20949;-83
2023/05/01 08:15:38;;;;;;;7.35;6.75;;;12.40;99.90;;;;;;5043008;28;20397;-83
2023/05/01 08:18:04;;;;;;;7.27;6.67;;;12.40;99.90;;;;;;5055720;28;20394;-83
2023/05/01 08:20:29;;;;;;;7.20;6.50;;;12.60;99.90;;;;;;5063507;28;20490;-83
2023/05/01 08:22:55;;;;;;;7.60;6.90;;;12.50;99.90;;;;;;5052787;28;20423;-83
2023/05/01 08:25:21;;;;;;;7.53;6.93;;;12.50;99.90;;;;;;5065303;28;20443;-83
2023/05/01 08:27:48;;;;;;;8.30;7.60;;;12.50;99.90;;;;;;5036999;28;20458;-83
2023/05/01 08:30:13;;;;;;;8.18;7.18;;;12.50;99.90;;;;;;5050797;28;21031;-83
2023/05/01 08:32:39;;;;;;;7.60;6.90;;;12.50;99.90;;;;;;5071981;28;20407;-83
2023/05/01 08:35:05;;;;;;;8.00;7.30;;;12.60;99.90;;;;;;5062115;28;20830;-83
2023/05/01 08:37:45;;;;;;;7.85;7.15;;;12.50;99.90;;;;;;5040732;28;20397;-83
2023/05/01 08:40:11;;;;;;;7.60;6.90;;;12.50;99.90;;;;;;5040872;28;20410;-83
2023/05/01 08:42:37;;;;;;;7.80;7.20;;;12.50;99.90;;;;;;5063926;28;20397;-83
2023/05/01 08:45:07;;;;;;;7.80;7.10;;;12.60;99.90;;;;;;5038230;28;20830;-83
2023/05/01 08:47:37;;;;;;;7.50;6.80;;;12.70;99.90;;;;;;5061478;28;20391;-83
2023/05/01 08:50:03;;;;;;;7.50;6.90;;;12.70;99.90;;;;;;5059711;28;20404;-83
2023/05/01 08:52:30;;;;;;;7.50;6.90;;;12.80;99.90;;;;;;5042833;28;20426;-83
2023/05/01 08:54:58;;;;;;;7.38;6.78;;;12.90;99.90;;;;;;5063553;28;20988;-82
2023/05/01 08:57:25;;;;;;;7.10;6.50;;;13.00;99.90;;;;;;5060757;28;20389;-83
2023/05/01 08:59:55;;;;;;;7.60;7.00;;;12.90;99.90;;;;;;5042000;28;20479;-83
2023/05/01 09:02:23;;;;;;;7.40;6.80;;;13.00;99.90;;;;;;5059006;28;20392;-84
2023/05/01 09:04:50;;;;;;;6.57;6.07;;;13.20;99.90;;;;;;5043568;28;20468;-82
2023/05/01 09:07:16;;;;;;;6.18;5.57;;;13.60;99.90;;;;;;5060542;28;20493;-81
2023/05/01 09:09:42;;;;;;;6.30;5.80;;;13.40;99.90;;;;;;5047263;28;20416;-82
2023/05/01 09:12:22;;;;;;;6.82;6.22;;;13.50;99.90;;;;;;5043693;28;20982;-83
2023/05/01 09:14:49;;;;;;;6.30;5.80;;;13.70;99.90;;;;;;5042218;28;20483;-82
2023/05/01 09:17:15;;;;;;;6.32;5.75;;;14.00;99.90;;;;;;5040981;28;20425;-83
2023/05/01 09:19:41;;;;;;;5.77;5.27;;;14.20;99.90;;;;;;5074691;22;20449;-83
2023/05/01 09:22:08;;;;;;;5.70;5.27;;;14.10;99.90;;;;;;5087534;28;20895;-82
2023/05/01 09:24:33;;;;;;;5.97;5.47;;;14.20;99.90;;;;;;5084050;28;20476;-82
2023/05/01 09:26:59;;;;;;;5.90;5.40;;;14.30;99.90;;;;;;5060526;28;20421;-82
2023/05/01 09:29:45;;;;;;;5.38;4.97;;;14.50;99.90;;;;;;5076963;28;20382;-83
2023/05/01 09:32:15;;;;;;;4.90;4.50;;;14.60;99.90;;;;;;5074049;28;20457;-83
2023/05/01 09:34:42;;;;;;;6.10;5.60;;;14.60;99.90;;;;;;5055734;28;20404;-82
2023/05/01 09:37:24;;;;;;;5.65;5.18;;;14.70;99.90;;;;;;5049206;28;20407;-82
2023/05/01 09:40:20;;;;;;;5.65;5.20;;;14.60;99.90;;;;;;5071212;28;20373;-83
2023/05/01 09:42:50;;;;;;;5.25;4.85;;;14.70;99.90;;;;;;5078117;28;20400;-82
2023/05/01 09:45:17;;;;;;;5.72;5.28;;;14.90;99.90;;;;;;5068181;28;20385;-82
2023/05/01 09:47:44;;;;;;;5.40;5.00;;;14.90;99.90;;;;;;5057025;28;20910;-82
2023/05/01 09:50:30;;;;;;;5.40;4.93;;;14.70;99.90;;;;;;5043521;28;20405;-83
2023/05/01 09:52:56;;;;;;;5.60;5.20;;;14.80;99.90;;;;;;5059816;28;20484;-82
2023/05/01 09:55:22;;;;;;;5.40;5.00;;;14.80;99.90;;;;;;5063795;28;21124;-82
2023/05/01 09:57:48;;;;;;;5.53;4.90;;;14.80;99.90;;;;;;5055666;28;20483;-83
2023/05/01 10:00:15;;;;;;;5.28;4.88;;;15.00;99.90;;;;;;5060150;28;20384;-83
2023/05/01 10:02:43;;;;;;;6.00;5.40;;;15.00;99.90;;;;;;5074371;28;20445;-83
2023/05/01 10:05:10;;;;;;;5.30;4.80;;;15.20;99.90;;;;;;5054537;28;20389;-83
2023/05/01 10:07:36;;;;;;;5.10;4.70;;;15.40;99.90;;;;;;5075701;28;20399;-83
2023/05/01 10:10:19;;;;;;;5.40;4.90;;;15.50;99.90;;;;;;5052549;28;20397;-83
2023/05/01 10:12:45;;;;;;;5.43;4.95;;;15.60;99.90;;;;;;5044228;28;20399;-82
2023/05/01 10:15:10;;;;;;;5.22;4.72;;;15.80;99.90;;;;;;5064475;28;20402;-83
2023/05/01 10:17:37;;;;;;;4.70;4.30;;;15.60;99.90;;;;;;5067153;28;20417;-82
2023/05/01 10:20:04;;;;;;;5.60;4.70;;;15.80;99.90;;;;;;5052121;28;20392;-82
2023/05/01 10:22:30;;;;;;;5.13;4.73;;;15.80;99.90;;;;;;5049696;28;20399;-82
2023/05/01 10:24:56;;;;;;;4.23;3.93;;;15.90;99.90;;;;;;5065540;28;20405;-82
2023/05/01 10:27:23;;;;;;;4.50;3.90;;;16.00;99.90;;;;;;5050253;28;20384;-82
2023/05/01 10:29:52;;;;;;;4.77;4.33;;;16.30;99.90;;;;;;5051746;28;20449;-82
2023/05/01 10:32:18;;;;;;;3.83;3.60;;;16.30;99.90;;;;;;5066897;28;20501;-81
2023/05/01 10:34:49;;;;;;;3.80;3.50;;;16.40;99.90;;;;;;5048862;28;20421;-81
2023/05/01 10:37:25;;;;;;;2.80;2.60;;;16.50;99.90;;;;;;5061935;28;20453;-82
2023/05/01 10:39:51;;;;;;;2.58;2.38;;;16.60;99.90;;;;;;5040190;28;20401;-82
2023/05/01 10:42:17;;;;;;;3.13;2.80;;;16.50;99.90;;;;;;5060932;28;20966;-82
2023/05/01 10:44:46;;;;;;;3.20;3.00;;;16.80;99.90;;;;;;5071282;28;20762;-82
2023/05/01 10:47:33;;;;;;;2.50;2.40;;;16.70;99.90;;;;;;5072835;28;20420;-82
2023/05/01 10:50:07;;;;;;;2.70;2.50;;;16.90;99.90;;;;;;5056801;28;20758;-81
2023/05/01 10:53:13;;;;;;;3.95;2.75;;;17.00;99.90;;;;;;5050905;28;20395;-81
2023/05/01 10:55:42;;;;;;;2.80;2.60;;;17.40;99.90;;;;;;5055920;28;20403;-83
2023/05/01 10:58:08;;;;;;;3.05;2.85;;;17.60;99.90;;;;;;5049574;28;20420;-82
2023/05/01 11:00:33;;;;;;;2.83;2.63;;;18.00;99.90;;;;;;5058562;28;20384;-82
2023/05/01 11:03:21;;;;;;;2.60;2.40;;;18.30;99.90;;;;;;5057863;28;20474;-82
2023/05/01 11:05:59;;;;;;;2.20;2.10;;;18.00;95.40;;;;;;5044160;28;20393;-81
2023/05/01 11:08:36;;;;;;;1.80;1.70;;;17.60;44.10;;;;;;5071141;28;20761;-81
2023/05/01 11:11:20;;;;;;;1.67;1.58;;;17.30;39.60;;;;;;5067634;28;20404;-81
2023/05/01 11:14:06;;;;;;;2.13;1.70;;;17.50;42.80;;;;;;5048634;28;20438;-81
2023/05/01 11:16:40;;;;;;;2.08;1.85;;;18.20;54.50;;;;;;5042374;28;20437;-82
2023/05/01 11:19:10;;;;;;;1.70;1.60;;;18.00;41.10;;;;;;5049658;28;20475;-82
2023/05/01 11:21:37;;;;;;;2.50;2.30;;;18.30;34.70;;;;;;5082772;28;20459;-81
2023/05/01 11:24:04;;;;;;;2.20;2.00;;;18.20;27.40;;;;;;5060247;28;20414;-81
2023/05/01 11:26:30;;;;;;;2.00;1.90;;;18.40;27.70;;;;;;5074528;28;20525;-81
2023/05/01 11:29:00;;;;;;;2.10;1.80;;;18.00;25.60;;;;;;5057993;28;20419;-82
2023/05/01 11:31:27;;;;;;;2.20;2.00;;;18.10;11.30;;;;;;5060786;28;20422;-82
2023/05/01 11:33:57;;;;;;;1.92;1.83;;;17.80;12.40;;;;;;5056879;28;20501;-81
2023/05/01 11:36:23;;;;;;;2.30;2.10;;;17.90;13.60;;;;;;5064664;28;20472;-82
2023/05/01 11:38:55;;;;;;;2.07;1.97;;;18.10;10.60;;;;;;5055477;28;20420;-82
2023/05/01 11:41:21;;;;;;;1.88;1.77;;;18.10;11.30;;;;;;5046432;28;20422;-82
2023/05/01 11:43:52;;;;;;;2.10;2.00;;;18.40;12.60;;;;;;5075251;28;20932;-81
2023/05/01 11:46:32;;;;;;;2.38;2.17;;;18.20;5.60;;;;;;5048792;28;20820;-81
2023/05/01 11:49:00;;;;;;;2.20;2.00;;;18.40;6.50;;;;;;5075423;28;20395;-82
2023/05/01 11:51:26;;;;;;;2.33;2.13;;;18.50;7.10;;;;;;5073750;28;20490;-82
2023/05/01 11:54:07;;;;;;;2.00;1.90;;;18.60;6.20;;;;;;5069741;28;20398;-82
2023/05/01 11:56:34;;;;;;;2.40;2.20;;;19.10;4.50;;;;;;5048668;28;20426;-82
2023/05/01 11:59:12;;;;;;;2.40;2.20;;;19.30;1.00;;;;;;5045570;28;20393;-82
2023/05/01 12:01:40;;;;;;;2.20;2.10;;;19.30;1.00;;;;;;5047028;28;20409;-83
2023/05/01 12:04:07;;;;;;;2.10;2.00;;;19.30;1.00;;;;;;5065571;28;20415;-81
2023/05/01 12:06:42;;;;;;;2.40;2.20;;;18.60;1.00;;;;;;5050370;28;20393;-82
2023/05/01 12:09:09;;;;;;;3.00;2.70;;;19.20;1.00;;;;;;5052584;28;20450;-80
2023/05/01 12:11:36;;;;;;;2.60;2.40;;;19.20;1.00;;;;;;5067596;28;20399;-81
2023/05/01 12:14:02;;;;;;;2.60;2.40;;;19.40;1.00;;;;;;5075361;28;20390;-81
2023/05/01 12:16:29;;;;;;;2.33;2.13;;;19.30;1.00;;;;;;5074777;28;20384;-81
2023/05/01 12:18:54;;;;;;;2.40;2.13;;;19.30;1.00;;;;;;5056740;28;20384;-81
2023/05/01 12:21:21;;;;;;;2.50;2.30;;;18.80;1.00;;;;;;5073990;28;20430;-82
2023/05/01 12:23:47;;;;;;;2.60;2.40;;;19.00;1.00;;;;;;5057668;28;20400;-82
2023/05/01 12:26:24;;;;;;;2.50;2.30;;;18.90;1.00;;;;;;5055286;28;20486;-81
2023/05/01 12:29:07;;;;;;;3.00;2.22;;;19.10;1.00;;;;;;5067720;28;20387;-81
2023/05/01 12:31:33;;;;;;;2.92;2.50;;;18.70;1.00;;;;;;5048878;28;20399;-81
2023/05/01 12:34:01;;;;;;;2.90;2.70;;;18.80;1.00;;;;;;5058509;28;20457;-81
2023/05/01 12:36:30;;;;;;;3.00;2.65;;;18.70;1.00;;;;;;5060869;28;20392;-81
2023/05/01 12:39:03;;;;;;;2.70;2.50;;;18.40;1.00;;;;;;5052005;28;20480;-83
2023/05/01 12:41:33;;;;;;;3.50;2.60;;;18.30;1.00;;;;;;5070347;28;20388;-83
2023/05/01 12:43:59;;;;;;;2.90;2.70;;;18.10;1.00;;;;;;5064036;28;20921;-83
2023/05/01 12:46:26;;;;;;;2.40;2.20;;;18.20;1.00;;;;;;5047151;28;20404;-83
2023/05/01 12:48:52;;;;;;;2.80;2.60;;;18.10;1.00;;;;;;5046702;28;20435;-83
2023/05/01 12:51:21;;;;;;;3.03;2.83;;;17.90;1.00;;;;;;5067971;28;20903;-82
2023/05/01 12:53:47;;;;;;;3.13;2.85;;;17.60;1.00;;;;;;5066310;28;20840;-82